Time;durP1;ratioP1;P1;durP2;ratioP2;P2;SDS_P1;SDS_P2;PMS_P1;PMS_P2;Temp;Humidity;BMP_temperature;BMP_pressure;BME280_temperature;BME280_humidity;BME280_pressure;Samples;Min_cycle;Max_cycle;Signal;HPM_P1;HPM_P2
2024/04/14 00:01:34;;;;;;;4.28;2.47;;;;;;;19.78;37.23;101557.91;5349607;26;20008;-84
2024/04/14 00:04:04;;;;;;;3.78;2.50;;;;;;;19.76;37.16;101556.34;5355926;26;20004;-81
2024/04/14 00:06:32;;;;;;;4.05;2.40;;;;;;;19.74;36.72;101555.66;5396093;26;20550;-83
2024/04/14 00:09:03;;;;;;;5.15;2.60;;;;;;;19.71;36.45;101561.56;5356953;26;20008;-85
2024/04/14 00:11:31;;;;;;;4.32;2.47;;;;;;;19.67;36.06;101558.28;5343904;26;20085;-83
2024/04/14 00:14:04;;;;;;;3.55;2.15;;;;;;;19.65;35.20;101564.00;5380148;26;20047;-83
2024/04/14 00:16:32;;;;;;;3.33;1.65;;;;;;;19.58;35.23;101560.19;5390642;26;20080;-84
2024/04/14 00:19:02;;;;;;;3.75;1.83;;;;;;;19.57;34.49;101568.69;5345268;26;20074;-83
2024/04/14 00:21:30;;;;;;;3.83;1.80;;;;;;;19.53;34.45;101564.56;5385556;26;20015;-84
2024/04/14 00:23:59;;;;;;;2.83;1.50;;;;;;;19.51;34.21;101566.63;5354655;26;20004;-84
2024/04/14 00:26:27;;;;;;;2.17;1.50;;;;;;;19.47;33.96;101568.03;5358980;26;20000;-82
2024/04/14 00:29:04;;;;;;;3.58;1.67;;;;;;;19.43;33.54;101569.44;5350131;26;20027;-84
2024/04/14 00:31:32;;;;;;;2.38;1.33;;;;;;;19.38;33.27;101569.94;5364512;26;20015;-82
2024/04/14 00:34:02;;;;;;;2.95;1.60;;;;;;;19.37;32.84;101572.91;5346160;26;20001;-84
2024/04/14 00:36:29;;;;;;;2.67;1.30;;;;;;;19.30;32.34;101567.16;5385465;26;20004;-83
2024/04/14 00:38:59;;;;;;;3.03;1.33;;;;;;;19.27;31.95;101564.75;5359145;26;20012;-83
2024/04/14 00:41:26;;;;;;;2.75;1.27;;;;;;;19.23;31.36;101572.56;5349008;26;20012;-83
2024/04/14 00:43:57;;;;;;;2.80;1.42;;;;;;;19.19;32.01;101573.06;5354423;26;20455;-83
2024/04/14 00:46:27;;;;;;;1.88;1.10;;;;;;;19.16;30.91;101577.03;5361400;26;20011;-83
2024/04/14 00:48:57;;;;;;;3.10;1.65;;;;;;;19.09;31.13;101570.44;5350022;26;20074;-83
2024/04/14 00:51:25;;;;;;;2.67;1.45;;;;;;;19.07;30.78;101575.28;5347575;26;20395;-84
2024/04/14 00:53:55;;;;;;;2.22;1.10;;;;;;;19.04;30.65;101583.13;5350452;26;20004;-82
2024/04/14 00:56:23;;;;;;;3.42;1.30;;;;;;;19.00;31.00;101576.16;5344887;26;20019;-83
2024/04/14 00:58:53;;;;;;;1.83;0.98;;;;;;;18.97;30.60;101584.81;5361609;26;20032;-85
2024/04/14 01:01:21;;;;;;;2.45;1.25;;;;;;;18.94;30.74;101587.94;5349221;26;20005;-83
2024/04/14 01:03:53;;;;;;;3.70;1.23;;;;;;;18.94;30.14;101593.50;5353961;26;20055;-85
2024/04/14 01:06:20;;;;;;;;;;;;;;;18.61;31.04;101599.00;5351076;26;20032;-84
2024/04/14 01:08:50;;;;;;;2.08;1.10;;;;;;;18.81;31.09;101594.84;5357577;26;20326;-84
2024/04/14 01:11:17;;;;;;;2.05;1.30;;;;;;;18.82;30.76;101596.59;5360415;26;20005;-84
2024/04/14 01:13:48;;;;;;;2.75;1.00;;;;;;;18.82;30.57;101604.03;5373295;26;20059;-82
2024/04/14 01:16:15;;;;;;;2.63;1.20;;;;;;;18.77;30.27;101604.56;5400621;26;20008;-83
2024/04/14 01:18:45;;;;;;;2.40;1.20;;;;;;;18.73;30.54;101603.16;5359111;26;20076;-81
2024/04/14 01:21:15;;;;;;;1.60;1.15;;;;;;;18.72;30.29;101592.25;5386510;26;20004;-85
2024/04/14 01:23:44;;;;;;;3.15;1.20;;;;;;;18.65;30.24;101603.13;5346764;26;20019;-82
2024/04/14 01:26:14;;;;;;;2.75;1.40;;;;;;;18.65;30.17;101603.13;5378244;26;20364;-84
2024/04/14 01:28:44;;;;;;;2.30;1.27;;;;;;;18.59;30.45;101598.28;5351177;26;20165;-80
2024/04/14 01:31:12;;;;;;;2.13;1.30;;;;;;;18.56;30.55;101606.91;5357047;26;20537;-83
2024/04/14 01:33:42;;;;;;;3.85;1.60;;;;;;;18.54;30.55;101608.16;5374196;26;20009;-81
2024/04/14 01:36:09;;;;;;;3.08;1.38;;;;;;;18.51;30.59;101612.13;5352618;26;20008;-83
2024/04/14 01:38:38;;;;;;;2.13;1.30;;;;;;;18.48;30.29;101612.41;5352259;26;20001;-83
2024/04/14 01:41:06;;;;;;;3.63;1.38;;;;;;;18.44;30.65;101619.34;5355563;26;20001;-84
2024/04/14 01:43:39;;;;;;;3.17;1.40;;;;;;;18.43;30.40;101623.13;5346166;26;20233;-83
2024/04/14 01:46:06;;;;;;;2.95;1.20;;;;;;;18.36;30.49;101619.31;5356682;26;20347;-84
2024/04/14 01:48:35;;;;;;;2.78;1.25;;;;;;;18.35;30.83;101631.44;5382930;26;20008;-82
2024/04/14 01:51:03;;;;;;;3.90;1.30;;;;;;;18.31;30.66;101628.09;5385927;26;20011;-84
2024/04/14 01:53:32;;;;;;;2.80;1.40;;;;;;;18.29;30.59;101624.66;5349300;26;20249;-84
2024/04/14 01:56:01;;;;;;;3.78;1.40;;;;;;;18.26;30.76;101626.88;5381132;26;20023;-84
2024/04/14 01:58:30;;;;;;;2.35;1.30;;;;;;;18.24;30.33;101627.03;5355562;26;20168;-84
2024/04/14 02:01:00;;;;;;;2.97;1.30;;;;;;;18.25;30.11;101633.44;5346322;26;20008;-84
2024/04/14 02:03:30;;;;;;;2.50;1.38;;;;;;;18.19;30.43;101634.13;5374628;26;20012;-84
2024/04/14 02:05:57;;;;;;;2.92;1.35;;;;;;;18.15;30.11;101631.66;5353252;26;20078;-84
2024/04/14 02:08:27;;;;;;;3.05;1.38;;;;;;;18.12;30.39;101626.47;5346288;26;20574;-84
2024/04/14 02:10:55;;;;;;;2.83;1.40;;;;;;;18.09;30.42;101628.69;5381590;26;20004;-84
2024/04/14 02:13:25;;;;;;;2.80;1.20;;;;;;;18.06;30.17;101631.81;5352366;26;20008;-83
2024/04/14 02:15:52;;;;;;;2.88;1.30;;;;;;;18.03;30.40;101634.91;5379969;26;20019;-85
2024/04/14 02:18:24;;;;;;;2.60;1.30;;;;;;;18.04;30.20;101643.06;5360285;26;20328;-85
2024/04/14 02:20:52;;;;;;;2.97;1.20;;;;;;;17.96;30.09;101647.69;5364244;26;20004;-84
2024/04/14 02:23:23;;;;;;;3.10;1.20;;;;;;;17.94;30.25;101653.38;5367880;26;20014;-84
2024/04/14 02:25:54;;;;;;;3.10;1.30;;;;;;;17.95;29.91;101660.66;5362549;26;20016;-85
2024/04/14 02:28:24;;;;;;;3.13;1.40;;;;;;;17.90;30.37;101651.94;5399608;26;20300;-83
2024/04/14 02:30:51;;;;;;;4.28;1.60;;;;;;;17.87;30.37;101652.28;5395401;26;20058;-85
2024/04/14 02:33:21;;;;;;;3.67;1.50;;;;;;;17.85;30.25;101647.94;5385033;26;20336;-85
2024/04/14 02:35:57;;;;;;;2.88;1.55;;;;;;;17.85;29.54;101645.16;5353842;26;20019;-84
2024/04/14 02:38:27;;;;;;;3.45;1.70;;;;;;;17.77;30.39;101641.31;5383770;26;20020;-84
2024/04/14 02:40:55;;;;;;;3.17;1.30;;;;;;;17.77;30.35;101643.22;5354581;26;20028;-83
2024/04/14 02:43:25;;;;;;;3.88;1.52;;;;;;;17.74;30.49;101638.88;5364682;26;20015;-84
2024/04/14 02:45:52;;;;;;;2.65;1.35;;;;;;;17.74;30.32;101646.28;5391856;26;20555;-84
2024/04/14 02:48:22;;;;;;;4.57;1.58;;;;;;;17.71;30.30;101641.06;5402257;26;20127;-84
2024/04/14 02:50:50;;;;;;;3.13;1.50;;;;;;;17.69;30.58;101645.91;5378373;26;20000;-84
2024/04/14 02:53:22;;;;;;;3.15;1.30;;;;;;;17.68;30.14;101645.03;5369593;26;19996;-84
2024/04/14 02:55:49;;;;;;;3.13;1.48;;;;;;;17.64;30.69;101646.41;5368387;26;20058;-84
2024/04/14 02:58:19;;;;;;;2.70;1.58;;;;;;;17.63;30.48;101646.56;5405023;26;20046;-84
2024/04/14 03:00:46;;;;;;;3.00;1.50;;;;;;;17.61;30.60;101652.25;5384499;26;20054;-84
2024/04/14 03:03:16;;;;;;;3.08;1.30;;;;;;;17.61;30.83;101652.25;5375104;26;20012;-83
2024/04/14 03:05:43;;;;;;;3.33;1.50;;;;;;;17.58;30.49;101660.84;5401106;26;20067;-84
2024/04/14 03:08:15;;;;;;;3.33;1.35;;;;;;;17.55;30.58;101661.19;5397814;26;20004;-83
2024/04/14 03:10:53;;;;;;;2.50;1.35;;;;;;;17.56;30.29;101662.94;5369308;26;20004;-84
2024/04/14 03:13:22;;;;;;;2.20;1.10;;;;;;;17.49;30.86;101656.28;5376924;26;20054;-83
2024/04/14 03:15:50;;;;;;;3.97;1.48;;;;;;;17.48;30.63;101654.56;5399322;26;20012;-83
2024/04/14 03:18:20;;;;;;;2.60;1.30;;;;;;;17.47;30.49;101663.03;5396665;26;20004;-84
2024/04/14 03:20:55;;;;;;;2.60;1.30;;;;;;;17.47;30.26;101651.97;5354910;26;20005;-83
2024/04/14 03:23:26;;;;;;;3.10;1.30;;;;;;;17.41;30.58;101670.06;5404589;26;20055;-84
2024/04/14 03:25:56;;;;;;;2.42;1.40;;;;;;;17.38;30.41;101668.50;5366909;26;19992;-84
2024/04/14 03:28:27;;;;;;;2.97;1.40;;;;;;;17.34;30.38;101663.41;5367926;26;20008;-82
2024/04/14 03:30:59;;;;;;;3.60;1.40;;;;;;;17.31;30.52;101661.88;5369303;26;19996;-82
2024/04/14 03:33:29;;;;;;;3.00;1.45;;;;;;;17.22;30.52;101650.88;5408012;26;20000;-84
2024/04/14 03:36:01;;;;;;;3.42;1.52;;;;;;;17.23;30.91;101667.31;5365410;26;20016;-83
2024/04/14 03:38:32;;;;;;;3.67;1.60;;;;;;;17.17;30.88;101656.88;5395692;26;20008;-83
2024/04/14 03:41:04;;;;;;;3.13;1.50;;;;;;;17.18;30.76;101664.13;5399936;26;20004;-83
2024/04/14 03:43:34;;;;;;;3.55;1.48;;;;;;;17.13;30.90;101671.19;5368321;26;20084;-83
2024/04/14 03:46:04;;;;;;;2.70;1.30;;;;;;;17.09;31.18;101661.44;5364818;26;20012;-84
2024/04/14 03:48:36;;;;;;;3.63;1.42;;;;;;;17.05;31.07;101666.44;5355579;26;20010;-84
2024/04/14 03:51:05;;;;;;;3.30;1.50;;;;;;;17.06;31.15;101665.41;5385466;26;20018;-84
2024/04/14 03:53:34;;;;;;;3.15;1.55;;;;;;;17.04;31.28;101663.81;5408513;26;20289;-85
2024/04/14 03:56:05;;;;;;;3.17;1.40;;;;;;;17.06;31.15;101672.84;5371021;26;20005;-85
2024/04/14 03:58:35;;;;;;;3.38;1.50;;;;;;;16.99;31.27;101665.16;5403871;26;20087;-83
2024/04/14 04:01:02;;;;;;;3.40;1.60;;;;;;;16.98;31.31;101663.44;5393240;26;20012;-83
2024/04/14 04:03:32;;;;;;;3.03;1.38;;;;;;;16.97;31.15;101667.22;5356898;26;20080;-82
2024/04/14 04:05:59;;;;;;;3.75;1.65;;;;;;;16.96;31.19;101664.59;5366246;26;20089;-83
2024/04/14 04:08:29;;;;;;;2.58;1.30;;;;;;;16.94;31.31;101669.38;5372222;26;20057;-84
2024/04/14 04:10:58;;;;;;;3.38;1.35;;;;;;;16.93;31.56;101670.41;5396751;26;20004;-84
2024/04/14 04:13:30;;;;;;;3.30;1.60;;;;;;;16.91;31.32;101676.09;5395225;26;20001;-84
2024/04/14 04:15:58;;;;;;;;;;;;;;;16.60;31.76;101681.09;5412185;26;20005;-83
2024/04/14 04:18:28;;;;;;;3.22;1.33;;;;;;;16.83;31.49;101675.13;5360651;26;19933;-83
2024/04/14 04:20:57;;;;;;;4.10;1.67;;;;;;;16.83;31.63;101673.22;5361231;26;20015;-83
2024/04/14 04:23:27;;;;;;;4.68;1.90;;;;;;;16.82;31.47;101676.19;5353336;26;20011;-81
2024/04/14 04:25:55;;;;;;;3.78;1.60;;;;;;;16.79;31.60;101691.19;5351077;26;20080;-80
2024/04/14 04:28:27;;;;;;;4.90;1.40;;;;;;;16.72;31.93;101687.28;5388776;26;20109;-82
2024/04/14 04:30:57;;;;;;;3.78;1.80;;;;;;;16.73;32.16;101693.69;5381940;26;20095;-83
2024/04/14 04:33:29;;;;;;;;;;;;;;;16.41;32.59;101696.91;5359584;26;20507;-83
2024/04/14 04:35:58;;;;;;;5.25;1.50;;;;;;;16.62;32.29;101698.41;5366327;26;19933;-83
2024/04/14 04:38:28;;;;;;;5.20;1.80;;;;;;;16.62;32.16;101695.63;5363010;26;20080;-84
2024/04/14 04:40:55;;;;;;;4.30;1.70;;;;;;;16.62;32.12;101698.41;5353431;26;20503;-82
2024/04/14 04:43:28;;;;;;;3.83;1.83;;;;;;;16.60;32.16;101689.38;5372025;26;20007;-84
2024/04/14 04:45:58;;;;;;;4.38;1.90;;;;;;;16.61;32.40;101706.84;5361247;26;20004;-83
2024/04/14 04:48:28;;;;;;;4.97;2.05;;;;;;;16.56;32.30;101710.06;5357921;26;20016;-83
2024/04/14 04:50:56;;;;;;;4.22;1.90;;;;;;;16.52;32.47;101705.88;5364911;26;20015;-82
2024/04/14 04:53:25;;;;;;;4.40;1.90;;;;;;;16.53;32.54;101709.50;5366988;26;20059;-83
2024/04/14 04:55:53;;;;;;;3.85;1.80;;;;;;;16.52;32.71;101707.75;5393675;26;20000;-84
2024/04/14 04:58:23;;;;;;;3.28;1.80;;;;;;;16.51;32.69;101719.81;5369467;26;20027;-83
2024/04/14 05:00:56;;;;;;;4.45;1.70;;;;;;;16.51;32.75;101719.81;5375909;26;20004;-82
2024/04/14 05:03:29;;;;;;;4.72;2.10;;;;;;;16.49;32.71;101721.91;5361170;26;20467;-83
2024/04/14 05:06:00;;;;;;;3.20;1.77;;;;;;;16.46;32.70;101717.53;5348005;26;20406;-84
2024/04/14 05:08:30;;;;;;;4.72;1.85;;;;;;;16.44;32.89;101722.34;5358427;26;20020;-83
2024/04/14 05:10:58;;;;;;;3.80;1.80;;;;;;;16.45;32.96;101726.84;5356495;26;20004;-82
2024/04/14 05:13:32;;;;;;;4.65;2.00;;;;;;;16.38;33.26;101731.25;5377138;26;20069;-83
2024/04/14 05:16:02;;;;;;;6.38;2.10;;;;;;;16.39;32.98;101721.94;5349446;26;20019;-83
2024/04/14 05:18:36;;;;;;;5.05;2.10;;;;;;;16.42;33.02;101729.91;5391403;26;20016;-83
2024/04/14 05:21:04;;;;;;;4.10;2.00;;;;;;;16.39;32.82;101729.34;5367573;26;20011;-80
2024/04/14 05:23:34;;;;;;;5.10;2.13;;;;;;;16.36;33.08;101727.75;5353938;26;20004;-82
2024/04/14 05:26:01;;;;;;;4.03;1.90;;;;;;;16.37;33.73;101729.50;5357228;26;20019;-81
2024/04/14 05:28:31;;;;;;;4.55;2.25;;;;;;;16.36;33.44;101736.03;5348455;26;20442;-82
2024/04/14 05:30:58;;;;;;;5.60;2.15;;;;;;;16.34;33.11;101728.91;5358687;26;20731;-81
2024/04/14 05:33:28;;;;;;;4.93;2.13;;;;;;;16.32;33.58;101740.13;5381904;26;20015;-81
2024/04/14 05:35:58;;;;;;;4.10;2.10;;;;;;;16.35;33.52;101739.81;5364239;26;20074;-81
2024/04/14 05:38:28;;;;;;;5.25;2.15;;;;;;;16.30;33.69;101738.53;5359956;26;20008;-81
2024/04/14 05:40:55;;;;;;;3.63;1.90;;;;;;;16.32;33.51;101745.66;5358748;26;20012;-81
2024/04/14 05:43:25;;;;;;;6.38;2.50;;;;;;;16.32;33.57;101750.31;5362393;26;20000;-82
2024/04/14 05:45:53;;;;;;;4.95;2.03;;;;;;;16.32;33.84;101747.56;5351047;26;20004;-82
2024/04/14 05:48:23;;;;;;;5.03;2.05;;;;;;;16.32;34.17;101742.03;5361345;26;20019;-82
2024/04/14 05:50:51;;;;;;;3.65;2.10;;;;;;;16.29;33.84;101745.06;5388085;26;20004;-82
2024/04/14 05:53:24;;;;;;;7.50;2.08;;;;;;;16.35;33.83;101745.34;5363704;26;20001;-82
2024/04/14 05:55:51;;;;;;;5.45;2.50;;;;;;;16.31;33.93;101746.69;5369368;26;20004;-82
2024/04/14 05:58:21;;;;;;;5.43;2.33;;;;;;;16.33;33.84;101754.81;5367854;26;20503;-82
2024/04/14 06:00:48;;;;;;;4.45;2.20;;;;;;;16.33;34.09;101749.28;5367324;26;20324;-82
2024/04/14 06:03:18;;;;;;;5.32;2.47;;;;;;;16.34;34.07;101759.28;5359836;26;20453;-82
2024/04/14 06:05:48;;;;;;;4.38;2.65;;;;;;;16.35;34.17;101766.56;5351089;26;20038;-82
2024/04/14 06:08:19;;;;;;;5.63;2.38;;;;;;;16.33;34.38;101760.34;5352609;26;20007;-81
2024/04/14 06:10:49;;;;;;;4.82;2.00;;;;;;;16.36;34.43;101765.56;5351500;26;20011;-81
2024/04/14 06:13:19;;;;;;;5.63;2.40;;;;;;;16.34;34.36;101767.59;5384073;26;20016;-82
2024/04/14 06:15:46;;;;;;;5.72;2.30;;;;;;;16.34;34.12;101760.16;5355012;26;20010;-81
2024/04/14 06:18:18;;;;;;;4.22;2.28;;;;;;;16.33;34.31;101755.66;5359577;26;20004;-82
2024/04/14 06:20:45;;;;;;;5.00;2.03;;;;;;;16.34;34.20;101757.41;5351180;26;20080;-82
2024/04/14 06:23:16;;;;;;;5.43;2.53;;;;;;;16.36;34.32;101765.56;5354585;26;20008;-82
2024/04/14 06:25:52;;;;;;;4.07;2.10;;;;;;;16.38;34.27;101756.09;5352239;26;20000;-82
2024/04/14 06:28:22;;;;;;;4.95;2.40;;;;;;;16.37;34.92;101765.41;5391089;26;20053;-81
2024/04/14 06:30:49;;;;;;;6.25;2.58;;;;;;;16.39;34.65;101760.59;5385212;26;20008;-82
2024/04/14 06:33:19;;;;;;;4.53;2.25;;;;;;;;;;5378201;26;20008;-82
2024/04/14 06:35:46;;;;;;;6.15;2.50;;;;;;;16.45;34.94;101764.66;5355936;26;20348;-81
2024/04/14 06:38:16;;;;;;;5.35;2.15;;;;;;;16.48;34.91;101767.13;5384229;26;20007;-82
2024/04/14 06:40:45;;;;;;;7.75;3.10;;;;;;;16.52;34.78;101774.94;5392137;26;20014;-82
2024/04/14 06:43:18;;;;;;;10.20;5.55;;;;;;;16.53;34.95;101773.94;5391398;26;20000;-82
2024/04/14 06:45:52;;;;;;;11.48;7.97;;;;;;;16.53;34.73;101776.69;5349084;26;20466;-81
2024/04/14 06:48:22;;;;;;;8.85;5.72;;;;;;;16.57;35.08;101778.16;5350669;26;20092;-81
2024/04/14 06:50:50;;;;;;;8.05;3.92;;;;;;;16.61;34.56;101773.16;5364083;26;20001;-81
2024/04/14 06:53:21;;;;;;;5.68;3.05;;;;;;;16.63;35.05;101772.00;5353144;26;20003;-82
2024/04/14 06:55:50;;;;;;;6.63;2.63;;;;;;;16.67;34.67;101779.97;5364945;26;20081;-81
2024/04/14 06:58:23;;;;;;;5.75;2.60;;;;;;;16.73;34.63;101776.63;5352697;26;20073;-81
2024/04/14 07:00:50;;;;;;;5.40;2.38;;;;;;;16.69;34.78;101770.50;5382801;26;20028;-80
2024/04/14 07:03:21;;;;;;;4.55;2.35;;;;;;;16.76;34.41;101776.28;5362198;26;20012;-82
2024/04/14 07:05:48;;;;;;;5.88;2.50;;;;;;;16.78;34.64;101783.44;5394011;26;20111;-83
2024/04/14 07:08:18;;;;;;;5.50;2.25;;;;;;;16.78;34.71;101774.25;5352559;26;20004;-82
2024/04/14 07:10:45;;;;;;;5.80;2.35;;;;;;;16.80;34.46;101775.84;5342737;26;20027;-82
2024/04/14 07:13:15;;;;;;;6.38;2.35;;;;;;;16.80;34.51;101775.00;5385274;26;20012;-81
2024/04/14 07:15:44;;;;;;;4.78;2.00;;;;;;;16.86;34.23;101777.13;5373116;26;20693;-81
2024/04/14 07:18:16;;;;;;;4.15;2.42;;;;;;;16.83;34.29;101778.28;5394280;26;20011;-81
2024/04/14 07:20:44;;;;;;;4.67;2.03;;;;;;;16.82;34.60;101784.88;5353705;26;20090;-81
2024/04/14 07:23:14;;;;;;;4.50;2.20;;;;;;;16.84;34.53;101788.34;5360409;26;20004;-82
2024/04/14 07:25:41;;;;;;;4.70;2.03;;;;;;;16.85;34.41;101792.84;5365391;26;20005;-82
2024/04/14 07:28:11;;;;;;;4.72;2.13;;;;;;;16.86;34.43;101791.81;5357242;26;20050;-82
2024/04/14 07:30:38;;;;;;;4.50;1.75;;;;;;;16.84;34.47;101788.34;5394784;26;20436;-81
2024/04/14 07:33:10;;;;;;;5.25;2.10;;;;;;;16.89;34.42;101791.53;5365472;26;20004;-81
2024/04/14 07:35:37;;;;;;;5.65;2.08;;;;;;;16.87;34.55;101782.50;5357191;26;20005;-82
2024/04/14 07:38:11;;;;;;;5.88;2.17;;;;;;;16.93;34.73;101786.53;5369116;26;20000;-82
2024/04/14 07:40:40;;;;;;;5.23;2.40;;;;;;;16.94;34.68;101793.81;5365816;26;20011;-82
2024/04/14 07:43:12;;;;;;;5.45;2.38;;;;;;;17.00;34.66;101796.00;5366913;26;20004;-81
2024/04/14 07:45:39;;;;;;;5.50;2.22;;;;;;;17.00;34.88;101799.63;5354642;26;20070;-81
2024/04/14 07:48:12;;;;;;;4.53;2.17;;;;;;;17.11;34.50;101794.94;5383193;26;20058;-81
2024/04/14 07:50:42;;;;;;;6.15;2.40;;;;;;;17.14;34.87;101801.03;5350536;26;20013;-81
2024/04/14 07:53:12;;;;;;;6.55;2.55;;;;;;;17.17;35.03;101799.84;5381002;26;20735;-81
2024/04/14 07:55:39;;;;;;;6.28;2.63;;;;;;;17.24;34.98;101803.72;5373185;26;20000;-82
2024/04/14 07:58:12;;;;;;;5.68;2.65;;;;;;;17.30;34.61;101805.88;5362229;26;20011;-82
2024/04/14 08:00:39;;;;;;;7.03;2.70;;;;;;;17.33;34.48;101811.09;5390374;26;19996;-81
2024/04/14 08:03:11;;;;;;;6.60;2.40;;;;;;;17.41;34.44;101811.19;5381649;26;20000;-81
2024/04/14 08:05:38;;;;;;;;;;;;;;;17.17;35.05;101825.59;5399819;26;20011;-81
2024/04/14 08:08:10;;;;;;;5.35;2.28;;;;;;;17.46;34.67;101830.09;5386864;26;19932;-81
2024/04/14 08:10:37;;;;;;;4.60;2.40;;;;;;;17.55;34.62;101823.63;5374835;26;20017;-81
2024/04/14 08:13:07;;;;;;;5.80;2.63;;;;;;;17.59;34.69;101822.28;5382778;26;20004;-80
2024/04/14 08:15:35;;;;;;;6.20;2.58;;;;;;;17.63;34.72;101827.34;5388664;26;20008;-83
2024/04/14 08:18:05;;;;;;;4.70;2.35;;;;;;;17.68;34.68;101821.34;5351633;26;20019;-83
2024/04/14 08:20:35;;;;;;;5.68;2.42;;;;;;;17.74;34.02;101826.25;5364722;26;20007;-83
2024/04/14 08:23:05;;;;;;;5.97;2.80;;;;;;;17.79;33.82;101823.91;5385159;26;20024;-82
2024/04/14 08:25:38;;;;;;;5.30;2.50;;;;;;;17.86;33.70;101827.78;5394461;26;20020;-83
2024/04/14 08:28:08;;;;;;;4.22;2.50;;;;;;;17.86;34.13;101821.38;5384284;26;20027;-83
2024/04/14 08:30:38;;;;;;;6.38;3.15;;;;;;;17.92;34.18;101829.91;5360198;26;20079;-83
2024/04/14 08:33:08;;;;;;;4.93;2.47;;;;;;;17.96;34.25;101822.16;5355283;26;20023;-82
2024/04/14 08:35:38;;;;;;;7.00;2.88;;;;;;;18.04;33.97;101819.47;5367237;26;20008;-82
2024/04/14 08:38:08;;;;;;;5.20;2.33;;;;;;;18.06;33.84;101822.94;5356359;26;20000;-83
2024/04/14 08:40:35;;;;;;;7.30;2.80;;;;;;;18.12;34.27;101828.72;5365078;26;20004;-83
2024/04/14 08:43:06;;;;;;;4.90;2.55;;;;;;;18.19;34.22;101825.28;5392998;26;20043;-82
2024/04/14 08:45:42;;;;;;;5.43;2.55;;;;;;;18.30;33.51;101830.59;5360008;26;20489;-81
2024/04/14 08:48:15;;;;;;;6.18;2.85;;;;;;;18.35;33.69;101823.53;5360384;26;20401;-82
2024/04/14 08:50:46;;;;;;;;;;;;;;;18.12;34.16;101825.94;5345958;26;20019;-81
2024/04/14 08:53:20;;;;;;;4.68;1.90;;;;;;;18.46;33.75;101823.25;5344313;26;19925;-83
2024/04/14 08:55:47;;;;;;;5.15;2.00;;;;;;;18.57;33.75;101835.13;5376951;26;20020;-82
2024/04/14 08:58:18;;;;;;;4.50;2.20;;;;;;;18.66;33.54;101836.91;5377171;26;20011;-83
2024/04/14 09:00:51;;;;;;;5.45;2.10;;;;;;;18.73;33.61;101833.31;5367927;26;20016;-82
2024/04/14 09:03:20;;;;;;;4.28;1.77;;;;;;;18.79;33.61;101838.22;5352112;26;20016;-81
2024/04/14 09:05:52;;;;;;;5.35;1.88;;;;;;;18.92;33.03;101831.34;5353122;26;20001;-82
2024/04/14 09:08:23;;;;;;;4.30;1.60;;;;;;;18.95;33.10;101834.66;5370382;26;20020;-83
2024/04/14 09:10:50;;;;;;;4.40;1.98;;;;;;;19.06;33.14;101837.13;5350278;26;20011;-82
2024/04/14 09:13:24;;;;;;;4.15;1.33;;;;;;;19.18;32.66;101832.16;5347418;26;20000;-82
2024/04/14 09:15:54;;;;;;;3.80;1.38;;;;;;;19.26;32.75;101835.88;5351252;26;20032;-81
2024/04/14 09:18:24;;;;;;;3.85;1.50;;;;;;;19.38;32.48;101841.13;5357188;26;20080;-83
2024/04/14 09:20:55;;;;;;;4.78;1.60;;;;;;;19.46;32.14;101833.66;5328779;26;20052;-83
2024/04/14 09:23:25;;;;;;;3.45;1.48;;;;;;;19.54;31.81;101839.25;5373621;26;20458;-82
2024/04/14 09:25:52;;;;;;;4.25;1.30;;;;;;;19.60;31.69;101830.25;5343984;26;20040;-82
2024/04/14 09:28:23;;;;;;;4.20;1.33;;;;;;;19.68;31.80;101837.72;5375787;26;20005;-82
2024/04/14 09:30:50;;;;;;;4.13;1.50;;;;;;;19.74;31.84;101834.25;5346512;26;20028;-83
2024/04/14 09:33:20;;;;;;;2.92;1.42;;;;;;;19.80;31.62;101832.69;5349957;26;20008;-83
2024/04/14 09:35:48;;;;;;;3.30;1.50;;;;;;;19.85;31.42;101836.72;5331856;26;20073;-83
2024/04/14 09:38:20;;;;;;;3.58;1.30;;;;;;;19.93;30.86;101835.88;5350189;26;20016;-82
2024/04/14 09:40:49;;;;;;;4.22;1.63;;;;;;;19.94;31.03;101829.28;5349043;26;20040;-82
2024/04/14 09:43:23;;;;;;;4.63;1.80;;;;;;;20.00;30.37;101837.81;5350042;26;20069;-84
2024/04/14 09:45:52;;;;;;;4.60;2.10;;;;;;;20.02;30.86;101838.50;5351594;26;20001;-83
2024/04/14 09:48:25;;;;;;;3.55;1.40;;;;;;;20.07;30.69;101851.00;5356083;26;20008;-83
2024/04/14 09:50:57;;;;;;;4.07;1.65;;;;;;;20.09;30.46;101854.47;5347821;26;20000;-81
2024/04/14 09:53:31;;;;;;;3.72;1.35;;;;;;;20.07;30.03;101854.66;5345047;26;20019;-81
2024/04/14 09:56:01;;;;;;;3.40;1.40;;;;;;;20.11;29.93;101846.84;5357381;26;20082;-82
2024/04/14 09:58:31;;;;;;;3.53;1.33;;;;;;;20.09;30.26;101847.00;5347917;26;20050;-82
2024/04/14 10:01:02;;;;;;;3.75;1.50;;;;;;;20.13;30.45;101850.31;5384074;26;20236;-81
2024/04/14 10:03:34;;;;;;;3.80;1.30;;;;;;;20.10;29.92;101853.44;5374962;26;20004;-82
2024/04/14 10:06:02;;;;;;;3.58;1.30;;;;;;;20.10;29.65;101848.75;5347748;26;20022;-82
2024/04/14 10:08:35;;;;;;;2.95;1.40;;;;;;;20.11;28.93;101842.16;5361939;26;20097;-81
2024/04/14 10:11:04;;;;;;;4.28;1.55;;;;;;;20.06;29.63;101832.59;5361060;26;20004;-81
2024/04/14 10:13:49;;;;;;;2.83;1.30;;;;;;;20.05;29.05;101836.41;5358382;26;19996;-81
2024/04/14 10:16:17;;;;;;;4.30;1.20;;;;;;;20.01;29.48;101847.00;5391139;26;20023;-82
2024/04/14 10:18:47;;;;;;;4.00;1.35;;;;;;;19.96;29.40;101844.72;5377089;26;20004;-83
2024/04/14 10:21:18;;;;;;;3.60;1.20;;;;;;;19.99;29.24;101843.53;5354494;26;20804;-83
2024/04/14 10:23:52;;;;;;;4.57;1.40;;;;;;;19.98;29.61;101844.56;5338046;26;20028;-82
2024/04/14 10:26:20;;;;;;;4.47;1.20;;;;;;;19.94;29.97;101838.50;5358014;26;20012;-81
2024/04/14 10:33:48;;;;;;;2.25;1.00;;;;;;;19.90;29.54;101858.41;5278465;26;20531;-78
2024/04/14 10:36:27;;;;;;;3.85;1.00;;;;;;;19.93;28.96;101858.13;5316761;26;20005;-78
2024/04/14 10:39:17;;;;;;;3.70;1.42;;;;;;;19.96;28.75;101858.63;5315426;26;20007;-77
2024/04/14 10:41:45;;;;;;;3.63;1.25;;;;;;;19.94;29.37;101848.75;5339731;26;20008;-77
2024/04/14 10:44:17;;;;;;;5.15;1.25;;;;;;;19.94;28.49;101852.41;5314117;26;20346;-77
2024/04/14 10:46:56;;;;;;;2.53;1.10;;;;;;;19.89;28.95;101851.13;5344821;26;20420;-77
2024/04/14 10:49:29;;;;;;;4.65;1.48;;;;;;;19.91;28.45;101854.63;5344534;26;20024;-77
2024/04/14 10:51:56;;;;;;;3.85;1.48;;;;;;;19.82;28.64;101855.63;5338264;26;19997;-78
2024/04/14 10:54:28;;;;;;;3.10;1.30;;;;;;;19.83;28.73;101849.91;5343485;26;20028;-77
2024/04/14 10:56:56;;;;;;;3.08;1.40;;;;;;;19.75;29.05;101854.56;5342043;26;20056;-77
2024/04/14 10:59:25;;;;;;;3.38;1.58;;;;;;;19.75;29.03;101854.56;5356447;26;20454;-77
2024/04/14 11:01:53;;;;;;;3.95;1.60;;;;;;;19.73;29.16;101845.53;5313890;26;20005;-78
2024/04/14 11:04:23;;;;;;;4.28;1.70;;;;;;;19.71;29.21;101850.41;5342429;26;20372;-79
2024/04/14 11:06:50;;;;;;;3.83;1.60;;;;;;;19.68;28.93;101834.94;5319571;26;20001;-77
2024/04/14 11:09:21;;;;;;;3.70;1.60;;;;;;;19.64;29.19;101837.19;5341724;26;20023;-79
2024/04/14 11:11:51;;;;;;;3.83;1.70;;;;;;;19.67;28.34;101832.34;5318157;26;20038;-79
2024/04/14 11:18:20;;;;;;;4.13;1.80;;;;;;;19.59;29.14;101833.19;5330412;26;20009;-79
2024/04/14 11:20:47;;;;;;;4.65;1.67;;;;;;;19.58;29.68;101831.44;5320784;26;20074;-82
2024/04/14 11:23:18;;;;;;;2.65;1.40;;;;;;;19.60;29.34;101833.03;5318062;26;20344;-81
2024/04/14 11:25:46;;;;;;;4.22;1.40;;;;;;;19.61;29.65;101837.56;5341245;26;20021;-81
2024/04/14 11:28:19;;;;;;;3.10;1.42;;;;;;;19.65;29.52;101830.59;5340693;26;20001;-81
2024/04/14 11:30:49;;;;;;;3.85;1.50;;;;;;;19.62;29.53;101830.94;5343464;26;20005;-80
2024/04/14 11:33:23;;;;;;;3.50;1.58;;;;;;;19.69;29.33;101833.03;5334165;26;20017;-82
2024/04/14 11:35:58;;;;;;;2.90;1.10;;;;;;;19.70;28.41;101819.00;5318588;26;20005;-81
2024/04/14 11:38:29;;;;;;;2.95;1.20;;;;;;;19.67;29.47;101819.31;5312485;26;20016;-82
2024/04/14 11:40:56;;;;;;;3.95;1.30;;;;;;;19.71;29.45;101823.47;5347935;26;20015;-82
2024/04/14 11:43:32;;;;;;;4.80;1.60;;;;;;;19.76;29.21;101825.75;5318643;26;20628;-80
2024/04/14 11:46:01;;;;;;;2.58;1.38;;;;;;;19.75;29.47;101821.25;5328471;26;20051;-81
2024/04/14 11:48:37;;;;;;;3.67;1.60;;;;;;;19.78;29.27;101829.25;5346271;26;20005;-80